sensor_id;sensor_type;location;lat;lon;timestamp;P1;durP1;ratioP1;P2;durP2;ratioP2
78732;SDS011;68056;52.530;5.454;2023-06-19T00:01:54;8.05;;;6.32;;
78732;SDS011;68056;52.530;5.454;2023-06-19T00:04:19;7.85;;;6.15;;
78732;SDS011;68056;52.530;5.454;2023-06-19T00:06:45;7.10;;;6.13;;
78732;SDS011;68056;52.530;5.454;2023-06-19T00:09:11;7.57;;;6.10;;
78732;SDS011;68056;52.530;5.454;2023-06-19T00:11:36;8.07;;;6.60;;
78732;SDS011;68056;52.530;5.454;2023-06-19T00:14:02;6.82;;;6.05;;
78732;SDS011;68056;52.530;5.454;2023-06-19T00:16:28;7.90;;;6.75;;
78732;SDS011;68056;52.530;5.454;2023-06-19T00:18:53;6.57;;;5.97;;
78732;SDS011;68056;52.530;5.454;2023-06-19T00:21:21;7.00;;;6.22;;
78732;SDS011;68056;52.530;5.454;2023-06-19T00:23:50;7.05;;;6.35;;
78732;SDS011;68056;52.530;5.454;2023-06-19T00:26:17;9.50;;;6.72;;
78732;SDS011;68056;52.530;5.454;2023-06-19T00:28:43;7.28;;;6.68;;
78732;SDS011;68056;52.530;5.454;2023-06-19T00:31:10;7.15;;;6.45;;
78732;SDS011;68056;52.530;5.454;2023-06-19T00:33:38;7.93;;;6.63;;
78732;SDS011;68056;52.530;5.454;2023-06-19T00:36:08;6.85;;;6.18;;
78732;SDS011;68056;52.530;5.454;2023-06-19T00:38:35;7.05;;;6.28;;
78732;SDS011;68056;52.530;5.454;2023-06-19T00:41:01;6.63;;;5.93;;
78732;SDS011;68056;52.530;5.454;2023-06-19T00:43:28;5.97;;;5.25;;
78732;SDS011;68056;52.530;5.454;2023-06-19T00:45:53;8.88;;;6.97;;
78732;SDS011;68056;52.530;5.454;2023-06-19T00:48:22;6.72;;;6.03;;
78732;SDS011;68056;52.530;5.454;2023-06-19T00:50:48;6.60;;;6.00;;
78732;SDS011;68056;52.530;5.454;2023-06-19T00:53:15;8.68;;;6.47;;
78732;SDS011;68056;52.530;5.454;2023-06-19T00:55:41;8.23;;;6.65;;
78732;SDS011;68056;52.530;5.454;2023-06-19T00:58:08;6.30;;;5.57;;
78732;SDS011;68056;52.530;5.454;2023-06-19T01:00:34;6.72;;;6.05;;
78732;SDS011;68056;52.530;5.454;2023-06-19T01:03:00;6.78;;;6.07;;
78732;SDS011;68056;52.530;5.454;2023-06-19T01:05:25;6.38;;;5.70;;
78732;SDS011;68056;52.530;5.454;2023-06-19T01:10:39;6.82;;;5.75;;
78732;SDS011;68056;52.530;5.454;2023-06-19T01:13:12;6.72;;;5.78;;
78732;SDS011;68056;52.530;5.454;2023-06-19T01:15:49;6.78;;;6.07;;
78732;SDS011;68056;52.530;5.454;2023-06-19T01:18:15;6.50;;;5.78;;
78732;SDS011;68056;52.530;5.454;2023-06-19T01:20:41;6.50;;;5.90;;
78732;SDS011;68056;52.530;5.454;2023-06-19T01:23:07;5.97;;;5.38;;
78732;SDS011;68056;52.530;5.454;2023-06-19T01:25:34;5.88;;;5.20;;
78732;SDS011;68056;52.530;5.454;2023-06-19T01:28:00;7.60;;;5.78;;
78732;SDS011;68056;52.530;5.454;2023-06-19T01:30:30;7.75;;;5.72;;
78732;SDS011;68056;52.530;5.454;2023-06-19T01:32:58;8.38;;;5.95;;
78732;SDS011;68056;52.530;5.454;2023-06-19T01:35:29;6.35;;;5.43;;
78732;SDS011;68056;52.530;5.454;2023-06-19T01:37:57;6.35;;;5.22;;
78732;SDS011;68056;52.530;5.454;2023-06-19T01:40:25;6.75;;;4.63;;
78732;SDS011;68056;52.530;5.454;2023-06-19T01:42:52;7.40;;;5.90;;
78732;SDS011;68056;52.530;5.454;2023-06-19T01:45:19;5.88;;;5.32;;
78732;SDS011;68056;52.530;5.454;2023-06-19T01:47:45;5.57;;;4.78;;
78732;SDS011;68056;52.530;5.454;2023-06-19T01:50:11;5.78;;;5.18;;
78732;SDS011;68056;52.530;5.454;2023-06-19T01:52:37;7.95;;;5.25;;
78732;SDS011;68056;52.530;5.454;2023-06-19T01:55:04;5.43;;;4.93;;
78732;SDS011;68056;52.530;5.454;2023-06-19T01:57:30;4.80;;;4.13;;
78732;SDS011;68056;52.530;5.454;2023-06-19T01:59:56;7.20;;;4.70;;
78732;SDS011;68056;52.530;5.454;2023-06-19T02:02:33;4.88;;;4.38;;
78732;SDS011;68056;52.530;5.454;2023-06-19T02:04:59;5.07;;;4.30;;
78732;SDS011;68056;52.530;5.454;2023-06-19T02:07:24;5.10;;;3.80;;
78732;SDS011;68056;52.530;5.454;2023-06-19T02:09:50;5.03;;;3.45;;
78732;SDS011;68056;52.530;5.454;2023-06-19T02:12:16;4.55;;;2.97;;
78732;SDS011;68056;52.530;5.454;2023-06-19T02:14:41;4.10;;;2.88;;
78732;SDS011;68056;52.530;5.454;2023-06-19T02:17:07;3.97;;;2.70;;
78732;SDS011;68056;52.530;5.454;2023-06-19T02:19:32;2.65;;;2.30;;
78732;SDS011;68056;52.530;5.454;2023-06-19T02:21:58;2.78;;;2.10;;
78732;SDS011;68056;52.530;5.454;2023-06-19T02:24:23;3.67;;;2.10;;
78732;SDS011;68056;52.530;5.454;2023-06-19T02:26:49;3.78;;;1.70;;
78732;SDS011;68056;52.530;5.454;2023-06-19T02:29:15;4.80;;;1.70;;
78732;SDS011;68056;52.530;5.454;2023-06-19T02:31:41;2.47;;;1.50;;
78732;SDS011;68056;52.530;5.454;2023-06-19T02:34:07;2.95;;;2.13;;
78732;SDS011;68056;52.530;5.454;2023-06-19T02:36:34;2.00;;;1.67;;
78732;SDS011;68056;52.530;5.454;2023-06-19T02:39:00;2.97;;;2.10;;
78732;SDS011;68056;52.530;5.454;2023-06-19T02:41:26;2.03;;;1.77;;
78732;SDS011;68056;52.530;5.454;2023-06-19T02:43:52;2.00;;;1.60;;
78732;SDS011;68056;52.530;5.454;2023-06-19T02:46:17;2.33;;;1.65;;
78732;SDS011;68056;52.530;5.454;2023-06-19T02:48:43;2.25;;;1.92;;
78732;SDS011;68056;52.530;5.454;2023-06-19T02:51:08;4.07;;;1.90;;
78732;SDS011;68056;52.530;5.454;2023-06-19T02:53:34;2.80;;;1.88;;
78732;SDS011;68056;52.530;5.454;2023-06-19T02:55:59;2.13;;;1.92;;
78732;SDS011;68056;52.530;5.454;2023-06-19T02:58:25;2.03;;;1.70;;
78732;SDS011;68056;52.530;5.454;2023-06-19T03:00:51;2.50;;;1.88;;
78732;SDS011;68056;52.530;5.454;2023-06-19T03:03:17;2.58;;;2.00;;
78732;SDS011;68056;52.530;5.454;2023-06-19T03:05:43;3.08;;;2.30;;
78732;SDS011;68056;52.530;5.454;2023-06-19T03:08:08;3.50;;;2.05;;
78732;SDS011;68056;52.530;5.454;2023-06-19T03:10:34;3.60;;;2.10;;
78732;SDS011;68056;52.530;5.454;2023-06-19T03:12:59;2.33;;;2.13;;
78732;SDS011;68056;52.530;5.454;2023-06-19T03:15:25;3.00;;;2.00;;
78732;SDS011;68056;52.530;5.454;2023-06-19T03:17:52;4.13;;;2.10;;
78732;SDS011;68056;52.530;5.454;2023-06-19T03:20:18;2.13;;;1.77;;
78732;SDS011;68056;52.530;5.454;2023-06-19T03:22:44;2.90;;;2.40;;
78732;SDS011;68056;52.530;5.454;2023-06-19T03:25:10;3.72;;;2.72;;
78732;SDS011;68056;52.530;5.454;2023-06-19T03:27:36;3.65;;;2.67;;
78732;SDS011;68056;52.530;5.454;2023-06-19T03:30:02;4.25;;;2.65;;
78732;SDS011;68056;52.530;5.454;2023-06-19T03:32:31;4.15;;;3.03;;
78732;SDS011;68056;52.530;5.454;2023-06-19T03:35:00;3.67;;;3.28;;
78732;SDS011;68056;52.530;5.454;2023-06-19T03:37:26;3.72;;;2.92;;
78732;SDS011;68056;52.530;5.454;2023-06-19T03:39:52;3.15;;;2.78;;
78732;SDS011;68056;52.530;5.454;2023-06-19T03:42:18;4.50;;;3.10;;
78732;SDS011;68056;52.530;5.454;2023-06-19T03:44:43;4.50;;;3.03;;
78732;SDS011;68056;52.530;5.454;2023-06-19T03:47:09;4.63;;;3.05;;
78732;SDS011;68056;52.530;5.454;2023-06-19T03:49:34;3.83;;;3.08;;
78732;SDS011;68056;52.530;5.454;2023-06-19T03:52:00;5.18;;;3.10;;
78732;SDS011;68056;52.530;5.454;2023-06-19T03:54:26;5.15;;;3.05;;
78732;SDS011;68056;52.530;5.454;2023-06-19T03:56:52;4.75;;;3.88;;
78732;SDS011;68056;52.530;5.454;2023-06-19T03:59:18;3.85;;;3.47;;
78732;SDS011;68056;52.530;5.454;2023-06-19T04:01:43;4.68;;;4.00;;
78732;SDS011;68056;52.530;5.454;2023-06-19T04:04:09;4.82;;;3.35;;
78732;SDS011;68056;52.530;5.454;2023-06-19T04:06:34;5.68;;;4.60;;
78732;SDS011;68056;52.530;5.454;2023-06-19T04:09:00;5.38;;;4.57;;
78732;SDS011;68056;52.530;5.454;2023-06-19T04:11:26;6.03;;;4.60;;
78732;SDS011;68056;52.530;5.454;2023-06-19T04:13:51;9.60;;;5.97;;
78732;SDS011;68056;52.530;5.454;2023-06-19T04:16:17;7.68;;;6.45;;
78732;SDS011;68056;52.530;5.454;2023-06-19T04:18:42;8.00;;;6.07;;
78732;SDS011;68056;52.530;5.454;2023-06-19T04:21:08;7.82;;;5.78;;
78732;SDS011;68056;52.530;5.454;2023-06-19T04:23:33;8.07;;;7.25;;
78732;SDS011;68056;52.530;5.454;2023-06-19T04:25:59;10.63;;;8.40;;
78732;SDS011;68056;52.530;5.454;2023-06-19T04:28:25;10.95;;;8.40;;
78732;SDS011;68056;52.530;5.454;2023-06-19T04:30:51;9.20;;;7.93;;
78732;SDS011;68056;52.530;5.454;2023-06-19T04:33:24;11.00;;;9.55;;
78732;SDS011;68056;52.530;5.454;2023-06-19T04:35:51;11.85;;;9.38;;
78732;SDS011;68056;52.530;5.454;2023-06-19T04:38:17;9.38;;;7.63;;
78732;SDS011;68056;52.530;5.454;2023-06-19T04:40:42;10.30;;;7.97;;
78732;SDS011;68056;52.530;5.454;2023-06-19T04:43:08;10.20;;;8.27;;
78732;SDS011;68056;52.530;5.454;2023-06-19T04:45:35;8.18;;;7.05;;
78732;SDS011;68056;52.530;5.454;2023-06-19T04:48:01;6.50;;;5.90;;
78732;SDS011;68056;52.530;5.454;2023-06-19T04:50:28;7.63;;;6.68;;
78732;SDS011;68056;52.530;5.454;2023-06-19T04:52:53;6.68;;;5.68;;
78732;SDS011;68056;52.530;5.454;2023-06-19T04:55:19;5.57;;;5.07;;
78732;SDS011;68056;52.530;5.454;2023-06-19T04:57:45;5.07;;;4.57;;
78732;SDS011;68056;52.530;5.454;2023-06-19T05:00:10;5.78;;;5.13;;
78732;SDS011;68056;52.530;5.454;2023-06-19T05:02:36;6.78;;;5.25;;
78732;SDS011;68056;52.530;5.454;2023-06-19T05:05:02;6.43;;;4.78;;
78732;SDS011;68056;52.530;5.454;2023-06-19T05:07:31;6.38;;;5.50;;
78732;SDS011;68056;52.530;5.454;2023-06-19T05:09:57;7.43;;;6.07;;
78732;SDS011;68056;52.530;5.454;2023-06-19T05:12:23;8.88;;;7.18;;
78732;SDS011;68056;52.530;5.454;2023-06-19T05:14:48;9.77;;;8.05;;
78732;SDS011;68056;52.530;5.454;2023-06-19T05:17:14;11.48;;;8.27;;
78732;SDS011;68056;52.530;5.454;2023-06-19T05:19:39;15.32;;;10.95;;
78732;SDS011;68056;52.530;5.454;2023-06-19T05:22:05;20.58;;;13.02;;
78732;SDS011;68056;52.530;5.454;2023-06-19T05:24:31;20.42;;;12.52;;
78732;SDS011;68056;52.530;5.454;2023-06-19T05:26:57;19.90;;;12.82;;
78732;SDS011;68056;52.530;5.454;2023-06-19T05:29:23;20.00;;;13.27;;
78732;SDS011;68056;52.530;5.454;2023-06-19T05:31:48;26.15;;;16.35;;
78732;SDS011;68056;52.530;5.454;2023-06-19T05:34:19;20.13;;;14.32;;
78732;SDS011;68056;52.530;5.454;2023-06-19T05:36:47;20.80;;;13.38;;
78732;SDS011;68056;52.530;5.454;2023-06-19T05:39:13;19.38;;;11.80;;
78732;SDS011;68056;52.530;5.454;2023-06-19T05:41:48;14.75;;;10.07;;
78732;SDS011;68056;52.530;5.454;2023-06-19T05:44:13;17.92;;;10.95;;
78732;SDS011;68056;52.530;5.454;2023-06-19T05:46:43;12.95;;;10.30;;
78732;SDS011;68056;52.530;5.454;2023-06-19T05:49:09;14.07;;;9.63;;
78732;SDS011;68056;52.530;5.454;2023-06-19T05:51:43;10.55;;;8.10;;
78732;SDS011;68056;52.530;5.454;2023-06-19T05:54:12;9.90;;;7.45;;
78732;SDS011;68056;52.530;5.454;2023-06-19T05:56:37;6.75;;;5.75;;
78732;SDS011;68056;52.530;5.454;2023-06-19T05:59:03;8.60;;;6.00;;
78732;SDS011;68056;52.530;5.454;2023-06-19T06:01:29;8.32;;;5.47;;
78732;SDS011;68056;52.530;5.454;2023-06-19T06:03:55;6.95;;;5.35;;
78732;SDS011;68056;52.530;5.454;2023-06-19T06:06:22;6.97;;;5.07;;
78732;SDS011;68056;52.530;5.454;2023-06-19T06:08:57;6.03;;;4.95;;
78732;SDS011;68056;52.530;5.454;2023-06-19T06:11:23;7.60;;;4.95;;
78732;SDS011;68056;52.530;5.454;2023-06-19T06:13:52;6.57;;;5.32;;
78732;SDS011;68056;52.530;5.454;2023-06-19T06:16:17;6.20;;;4.78;;
78732;SDS011;68056;52.530;5.454;2023-06-19T06:18:46;6.60;;;4.38;;
78732;SDS011;68056;52.530;5.454;2023-06-19T06:21:14;6.13;;;4.55;;
78732;SDS011;68056;52.530;5.454;2023-06-19T06:23:42;5.95;;;4.80;;
78732;SDS011;68056;52.530;5.454;2023-06-19T06:26:09;4.57;;;3.72;;
78732;SDS011;68056;52.530;5.454;2023-06-19T06:28:36;6.30;;;4.20;;
78732;SDS011;68056;52.530;5.454;2023-06-19T06:31:01;9.45;;;4.40;;
78732;SDS011;68056;52.530;5.454;2023-06-19T06:33:27;5.03;;;3.90;;
78732;SDS011;68056;52.530;5.454;2023-06-19T06:35:54;4.57;;;4.03;;
78732;SDS011;68056;52.530;5.454;2023-06-19T06:38:20;5.68;;;4.20;;
78732;SDS011;68056;52.530;5.454;2023-06-19T06:40:45;4.93;;;3.33;;
78732;SDS011;68056;52.530;5.454;2023-06-19T06:43:11;4.15;;;3.42;;
78732;SDS011;68056;52.530;5.454;2023-06-19T06:45:37;5.18;;;3.65;;
78732;SDS011;68056;52.530;5.454;2023-06-19T06:48:04;4.82;;;3.75;;
78732;SDS011;68056;52.530;5.454;2023-06-19T06:50:31;5.40;;;3.90;;
78732;SDS011;68056;52.530;5.454;2023-06-19T06:52:57;3.53;;;3.20;;
78732;SDS011;68056;52.530;5.454;2023-06-19T06:55:32;5.22;;;3.78;;
78732;SDS011;68056;52.530;5.454;2023-06-19T06:57:57;4.85;;;4.20;;
78732;SDS011;68056;52.530;5.454;2023-06-19T07:00:23;5.43;;;4.13;;
78732;SDS011;68056;52.530;5.454;2023-06-19T07:02:50;4.28;;;3.65;;
78732;SDS011;68056;52.530;5.454;2023-06-19T07:05:16;5.85;;;4.25;;
78732;SDS011;68056;52.530;5.454;2023-06-19T07:07:42;6.53;;;4.72;;
78732;SDS011;68056;52.530;5.454;2023-06-19T07:10:08;5.90;;;4.85;;
78732;SDS011;68056;52.530;5.454;2023-06-19T07:12:34;7.25;;;4.75;;
78732;SDS011;68056;52.530;5.454;2023-06-19T07:15:00;6.28;;;4.75;;
78732;SDS011;68056;52.530;5.454;2023-06-19T07:17:25;6.28;;;5.00;;
78732;SDS011;68056;52.530;5.454;2023-06-19T07:19:51;7.13;;;5.72;;
78732;SDS011;68056;52.530;5.454;2023-06-19T07:22:16;7.25;;;5.78;;
78732;SDS011;68056;52.530;5.454;2023-06-19T07:24:42;10.02;;;7.13;;
78732;SDS011;68056;52.530;5.454;2023-06-19T07:27:20;12.13;;;8.63;;
78732;SDS011;68056;52.530;5.454;2023-06-19T07:29:45;10.93;;;8.07;;
78732;SDS011;68056;52.530;5.454;2023-06-19T07:32:11;12.90;;;8.75;;
78732;SDS011;68056;52.530;5.454;2023-06-19T07:34:37;9.65;;;7.70;;
78732;SDS011;68056;52.530;5.454;2023-06-19T07:37:02;11.77;;;8.55;;
78732;SDS011;68056;52.530;5.454;2023-06-19T07:39:28;14.35;;;9.52;;
78732;SDS011;68056;52.530;5.454;2023-06-19T07:41:53;15.40;;;9.48;;
78732;SDS011;68056;52.530;5.454;2023-06-19T07:44:25;12.20;;;9.18;;
78732;SDS011;68056;52.530;5.454;2023-06-19T07:46:50;13.70;;;9.80;;
78732;SDS011;68056;52.530;5.454;2023-06-19T07:49:16;11.68;;;8.57;;
78732;SDS011;68056;52.530;5.454;2023-06-19T07:51:41;11.20;;;8.45;;
78732;SDS011;68056;52.530;5.454;2023-06-19T07:54:07;10.18;;;7.25;;
78732;SDS011;68056;52.530;5.454;2023-06-19T07:56:32;9.93;;;7.60;;
78732;SDS011;68056;52.530;5.454;2023-06-19T07:58:58;11.63;;;8.88;;
78732;SDS011;68056;52.530;5.454;2023-06-19T08:01:24;11.75;;;9.20;;
78732;SDS011;68056;52.530;5.454;2023-06-19T08:03:49;12.07;;;8.98;;
78732;SDS011;68056;52.530;5.454;2023-06-19T08:06:15;12.30;;;9.82;;
78732;SDS011;68056;52.530;5.454;2023-06-19T08:08:40;10.90;;;8.30;;
78732;SDS011;68056;52.530;5.454;2023-06-19T08:11:06;12.18;;;9.02;;
78732;SDS011;68056;52.530;5.454;2023-06-19T08:13:31;11.93;;;8.60;;
78732;SDS011;68056;52.530;5.454;2023-06-19T08:15:57;11.35;;;8.93;;
78732;SDS011;68056;52.530;5.454;2023-06-19T08:18:22;11.93;;;8.18;;
78732;SDS011;68056;52.530;5.454;2023-06-19T08:20:48;9.98;;;7.88;;
78732;SDS011;68056;52.530;5.454;2023-06-19T08:23:14;11.18;;;8.73;;
78732;SDS011;68056;52.530;5.454;2023-06-19T08:25:40;11.48;;;8.40;;
78732;SDS011;68056;52.530;5.454;2023-06-19T08:28:05;11.18;;;8.35;;
78732;SDS011;68056;52.530;5.454;2023-06-19T08:30:31;7.43;;;6.15;;
78732;SDS011;68056;52.530;5.454;2023-06-19T08:32:57;8.00;;;6.28;;
78732;SDS011;68056;52.530;5.454;2023-06-19T08:35:22;9.30;;;7.07;;
78732;SDS011;68056;52.530;5.454;2023-06-19T08:37:48;8.48;;;6.30;;
78732;SDS011;68056;52.530;5.454;2023-06-19T08:40:13;10.20;;;6.15;;
78732;SDS011;68056;52.530;5.454;2023-06-19T08:42:39;8.20;;;6.13;;
78732;SDS011;68056;52.530;5.454;2023-06-19T08:45:05;8.43;;;6.10;;
78732;SDS011;68056;52.530;5.454;2023-06-19T08:47:32;6.75;;;5.50;;
78732;SDS011;68056;52.530;5.454;2023-06-19T08:49:59;9.25;;;6.72;;
78732;SDS011;68056;52.530;5.454;2023-06-19T08:52:24;8.50;;;5.78;;
78732;SDS011;68056;52.530;5.454;2023-06-19T08:54:50;7.07;;;6.32;;
78732;SDS011;68056;52.530;5.454;2023-06-19T08:57:15;9.63;;;6.30;;
78732;SDS011;68056;52.530;5.454;2023-06-19T08:59:47;8.27;;;5.70;;
78732;SDS011;68056;52.530;5.454;2023-06-19T09:02:16;9.32;;;6.63;;
78732;SDS011;68056;52.530;5.454;2023-06-19T09:04:42;5.88;;;5.22;;
78732;SDS011;68056;52.530;5.454;2023-06-19T09:07:08;8.65;;;6.13;;
78732;SDS011;68056;52.530;5.454;2023-06-19T09:09:34;7.63;;;6.22;;
78732;SDS011;68056;52.530;5.454;2023-06-19T09:14:32;8.30;;;6.70;;
78732;SDS011;68056;52.530;5.454;2023-06-19T09:16:58;12.98;;;7.75;;
78732;SDS011;68056;52.530;5.454;2023-06-19T09:19:24;11.45;;;7.35;;
78732;SDS011;68056;52.530;5.454;2023-06-19T09:21:50;9.57;;;7.38;;
78732;SDS011;68056;52.530;5.454;2023-06-19T09:24:15;10.45;;;7.32;;
78732;SDS011;68056;52.530;5.454;2023-06-19T09:26:41;8.25;;;6.28;;
78732;SDS011;68056;52.530;5.454;2023-06-19T09:29:13;10.55;;;7.35;;
78732;SDS011;68056;52.530;5.454;2023-06-19T09:31:43;9.63;;;7.30;;
78732;SDS011;68056;52.530;5.454;2023-06-19T09:34:08;10.30;;;7.03;;
78732;SDS011;68056;52.530;5.454;2023-06-19T09:36:34;9.63;;;6.97;;
78732;SDS011;68056;52.530;5.454;2023-06-19T09:39:01;11.55;;;6.88;;
78732;SDS011;68056;52.530;5.454;2023-06-19T09:41:29;8.25;;;6.28;;
78732;SDS011;68056;52.530;5.454;2023-06-19T09:43:55;8.77;;;6.60;;
78732;SDS011;68056;52.530;5.454;2023-06-19T09:46:23;7.88;;;7.00;;
78732;SDS011;68056;52.530;5.454;2023-06-19T09:48:54;8.52;;;7.30;;
78732;SDS011;68056;52.530;5.454;2023-06-19T09:51:26;9.52;;;7.35;;
78732;SDS011;68056;52.530;5.454;2023-06-19T09:53:56;8.57;;;6.85;;
78732;SDS011;68056;52.530;5.454;2023-06-19T09:58:51;6.47;;;5.63;;
78732;SDS011;68056;52.530;5.454;2023-06-19T10:01:18;8.85;;;5.80;;
78732;SDS011;68056;52.530;5.454;2023-06-19T10:03:44;9.60;;;6.35;;
78732;SDS011;68056;52.530;5.454;2023-06-19T10:06:13;11.45;;;6.57;;
78732;SDS011;68056;52.530;5.454;2023-06-19T10:08:41;6.93;;;6.13;;
78732;SDS011;68056;52.530;5.454;2023-06-19T10:11:08;9.77;;;7.00;;
78732;SDS011;68056;52.530;5.454;2023-06-19T10:13:35;9.88;;;6.75;;
78732;SDS011;68056;52.530;5.454;2023-06-19T10:16:06;10.23;;;7.18;;
78732;SDS011;68056;52.530;5.454;2023-06-19T10:18:32;9.48;;;7.93;;
78732;SDS011;68056;52.530;5.454;2023-06-19T10:21:19;9.43;;;6.25;;
78732;SDS011;68056;52.530;5.454;2023-06-19T10:23:58;10.20;;;7.22;;
78732;SDS011;68056;52.530;5.454;2023-06-19T10:26:30;10.57;;;6.80;;
78732;SDS011;68056;52.530;5.454;2023-06-19T10:28:59;10.23;;;7.40;;
78732;SDS011;68056;52.530;5.454;2023-06-19T10:31:26;9.90;;;6.80;;
78732;SDS011;68056;52.530;5.454;2023-06-19T10:33:53;9.23;;;7.03;;
78732;SDS011;68056;52.530;5.454;2023-06-19T10:36:20;10.55;;;7.57;;
78732;SDS011;68056;52.530;5.454;2023-06-19T10:38:48;9.90;;;7.93;;
78732;SDS011;68056;52.530;5.454;2023-06-19T10:41:21;9.52;;;6.57;;
78732;SDS011;68056;52.530;5.454;2023-06-19T10:44:23;8.85;;;7.47;;
78732;SDS011;68056;52.530;5.454;2023-06-19T10:46:44;9.60;;;7.00;;
78732;SDS011;68056;52.530;5.454;2023-06-19T10:49:19;11.55;;;7.57;;
78732;SDS011;68056;52.530;5.454;2023-06-19T10:51:48;10.05;;;7.75;;
78732;SDS011;68056;52.530;5.454;2023-06-19T10:54:13;11.27;;;7.63;;
78732;SDS011;68056;52.530;5.454;2023-06-19T10:56:39;10.13;;;8.13;;
78732;SDS011;68056;52.530;5.454;2023-06-19T10:59:08;11.13;;;8.05;;
78732;SDS011;68056;52.530;5.454;2023-06-19T11:01:39;11.43;;;7.88;;
78732;SDS011;68056;52.530;5.454;2023-06-19T11:04:15;8.73;;;7.15;;
78732;SDS011;68056;52.530;5.454;2023-06-19T11:06:42;8.85;;;7.80;;
78732;SDS011;68056;52.530;5.454;2023-06-19T11:09:09;13.68;;;8.60;;
78732;SDS011;68056;52.530;5.454;2023-06-19T11:14:11;10.18;;;7.85;;
78732;SDS011;68056;52.530;5.454;2023-06-19T11:16:38;9.30;;;7.75;;
78732;SDS011;68056;52.530;5.454;2023-06-19T11:19:18;9.60;;;7.70;;
78732;SDS011;68056;52.530;5.454;2023-06-19T11:21:51;8.32;;;7.40;;
78732;SDS011;68056;52.530;5.454;2023-06-19T11:24:18;8.57;;;7.75;;
78732;SDS011;68056;52.530;5.454;2023-06-19T11:26:50;7.97;;;7.13;;
78732;SDS011;68056;52.530;5.454;2023-06-19T11:29:23;8.25;;;7.32;;
78732;SDS011;68056;52.530;5.454;2023-06-19T11:32:07;7.70;;;6.55;;
78732;SDS011;68056;52.530;5.454;2023-06-19T11:34:34;7.70;;;6.63;;
78732;SDS011;68056;52.530;5.454;2023-06-19T11:37:22;9.38;;;7.50;;
78732;SDS011;68056;52.530;5.454;2023-06-19T11:39:47;6.55;;;5.88;;
78732;SDS011;68056;52.530;5.454;2023-06-19T11:42:16;6.72;;;5.82;;
78732;SDS011;68056;52.530;5.454;2023-06-19T11:44:59;9.60;;;7.20;;
78732;SDS011;68056;52.530;5.454;2023-06-19T11:47:31;7.95;;;6.25;;
78732;SDS011;68056;52.530;5.454;2023-06-19T11:49:58;7.80;;;6.60;;
78732;SDS011;68056;52.530;5.454;2023-06-19T11:52:24;10.63;;;7.47;;
78732;SDS011;68056;52.530;5.454;2023-06-19T11:54:49;8.05;;;6.82;;
78732;SDS011;68056;52.530;5.454;2023-06-19T11:57:15;9.98;;;6.82;;
78732;SDS011;68056;52.530;5.454;2023-06-19T11:59:49;8.02;;;7.20;;
78732;SDS011;68056;52.530;5.454;2023-06-19T12:02:21;8.48;;;7.65;;
78732;SDS011;68056;52.530;5.454;2023-06-19T12:04:46;8.35;;;6.93;;
78732;SDS011;68056;52.530;5.454;2023-06-19T12:07:24;7.07;;;6.00;;
78732;SDS011;68056;52.530;5.454;2023-06-19T12:09:50;8.23;;;6.22;;
78732;SDS011;68056;52.530;5.454;2023-06-19T12:12:17;9.57;;;6.93;;
78732;SDS011;68056;52.530;5.454;2023-06-19T12:14:42;7.15;;;6.40;;
78732;SDS011;68056;52.530;5.454;2023-06-19T12:17:08;8.60;;;6.72;;
78732;SDS011;68056;52.530;5.454;2023-06-19T12:19:47;7.53;;;6.40;;
78732;SDS011;68056;52.530;5.454;2023-06-19T12:22:19;9.95;;;7.10;;
78732;SDS011;68056;52.530;5.454;2023-06-19T12:24:45;7.07;;;5.70;;
78732;SDS011;68056;52.530;5.454;2023-06-19T12:27:14;8.98;;;6.55;;
78732;SDS011;68056;52.530;5.454;2023-06-19T12:29:46;6.68;;;5.40;;
78732;SDS011;68056;52.530;5.454;2023-06-19T12:32:11;8.20;;;6.18;;
78732;SDS011;68056;52.530;5.454;2023-06-19T12:34:40;8.88;;;6.72;;
78732;SDS011;68056;52.530;5.454;2023-06-19T12:37:11;7.50;;;6.30;;
78732;SDS011;68056;52.530;5.454;2023-06-19T12:39:42;6.03;;;5.28;;
78732;SDS011;68056;52.530;5.454;2023-06-19T12:42:08;8.98;;;6.35;;
78732;SDS011;68056;52.530;5.454;2023-06-19T12:44:36;8.98;;;7.35;;
78732;SDS011;68056;52.530;5.454;2023-06-19T12:47:02;7.65;;;6.45;;
78732;SDS011;68056;52.530;5.454;2023-06-19T12:49:30;9.85;;;6.63;;
78732;SDS011;68056;52.530;5.454;2023-06-19T12:51:57;7.30;;;5.93;;
78732;SDS011;68056;52.530;5.454;2023-06-19T12:54:22;7.40;;;6.70;;
78732;SDS011;68056;52.530;5.454;2023-06-19T12:56:48;8.60;;;6.15;;
78732;SDS011;68056;52.530;5.454;2023-06-19T12:59:15;8.57;;;6.03;;
78732;SDS011;68056;52.530;5.454;2023-06-19T13:01:41;8.25;;;6.60;;
78732;SDS011;68056;52.530;5.454;2023-06-19T13:04:07;6.38;;;5.75;;
78732;SDS011;68056;52.530;5.454;2023-06-19T13:06:32;7.35;;;6.38;;
78732;SDS011;68056;52.530;5.454;2023-06-19T13:08:58;7.45;;;6.50;;
78732;SDS011;68056;52.530;5.454;2023-06-19T13:11:24;8.38;;;6.80;;
78732;SDS011;68056;52.530;5.454;2023-06-19T13:13:49;6.40;;;5.65;;
78732;SDS011;68056;52.530;5.454;2023-06-19T13:16:18;6.93;;;6.22;;
78732;SDS011;68056;52.530;5.454;2023-06-19T13:18:44;6.18;;;5.57;;
78732;SDS011;68056;52.530;5.454;2023-06-19T13:21:10;5.88;;;5.20;;
78732;SDS011;68056;52.530;5.454;2023-06-19T13:23:36;8.73;;;6.28;;
78732;SDS011;68056;52.530;5.454;2023-06-19T13:26:02;7.22;;;5.43;;
78732;SDS011;68056;52.530;5.454;2023-06-19T13:28:28;7.57;;;5.70;;
78732;SDS011;68056;52.530;5.454;2023-06-19T13:33:23;5.82;;;4.55;;
78732;SDS011;68056;52.530;5.454;2023-06-19T13:52:48;5.22;;;3.92;;
78732;SDS011;68056;52.530;5.454;2023-06-19T13:56:32;4.68;;;3.90;;
78732;SDS011;68056;52.530;5.454;2023-06-19T14:12:08;5.15;;;3.80;;
78732;SDS011;68056;52.530;5.454;2023-06-19T14:15:17;4.53;;;4.10;;
78732;SDS011;68056;52.530;5.454;2023-06-19T14:25:42;4.78;;;4.15;;
78732;SDS011;68056;52.530;5.454;2023-06-19T14:39:28;5.50;;;3.67;;
78732;SDS011;68056;52.530;5.454;2023-06-19T14:42:06;5.18;;;3.78;;
78732;SDS011;68056;52.530;5.454;2023-06-19T15:20:45;4.63;;;3.67;;
78732;SDS011;68056;52.530;5.454;2023-06-19T15:23:11;5.07;;;3.55;;
78732;SDS011;68056;52.530;5.454;2023-06-19T15:25:59;5.63;;;3.92;;
78732;SDS011;68056;52.530;5.454;2023-06-19T15:28:37;4.28;;;3.58;;
78732;SDS011;68056;52.530;5.454;2023-06-19T15:31:03;4.47;;;4.07;;
78732;SDS011;68056;52.530;5.454;2023-06-19T15:36:08;4.13;;;3.55;;
78732;SDS011;68056;52.530;5.454;2023-06-19T15:38:39;3.47;;;3.17;;
78732;SDS011;68056;52.530;5.454;2023-06-19T15:41:06;4.63;;;3.58;;
78732;SDS011;68056;52.530;5.454;2023-06-19T15:43:38;3.83;;;3.45;;
78732;SDS011;68056;52.530;5.454;2023-06-19T15:46:19;5.20;;;3.65;;
78732;SDS011;68056;52.530;5.454;2023-06-19T15:48:46;3.58;;;3.03;;
78732;SDS011;68056;52.530;5.454;2023-06-19T15:51:11;4.47;;;3.42;;
78732;SDS011;68056;52.530;5.454;2023-06-19T15:53:38;3.97;;;3.58;;
78732;SDS011;68056;52.530;5.454;2023-06-19T15:56:07;4.47;;;3.60;;
78732;SDS011;68056;52.530;5.454;2023-06-19T16:39:53;6.07;;;3.83;;
78732;SDS011;68056;52.530;5.454;2023-06-19T16:42:21;5.68;;;4.40;;
78732;SDS011;68056;52.530;5.454;2023-06-19T16:44:50;6.75;;;4.30;;
78732;SDS011;68056;52.530;5.454;2023-06-19T16:58:01;6.07;;;4.30;;
78732;SDS011;68056;52.530;5.454;2023-06-19T17:00:27;5.20;;;4.22;;
78732;SDS011;68056;52.530;5.454;2023-06-19T17:02:53;5.78;;;4.00;;
78732;SDS011;68056;52.530;5.454;2023-06-19T17:05:23;5.78;;;4.28;;
78732;SDS011;68056;52.530;5.454;2023-06-19T17:07:49;4.97;;;4.18;;
78732;SDS011;68056;52.530;5.454;2023-06-19T17:12:51;5.53;;;3.42;;
78732;SDS011;68056;52.530;5.454;2023-06-19T17:15:17;5.20;;;3.45;;
78732;SDS011;68056;52.530;5.454;2023-06-19T17:17:49;4.20;;;3.47;;
78732;SDS011;68056;52.530;5.454;2023-06-19T17:20:15;5.70;;;4.28;;
78732;SDS011;68056;52.530;5.454;2023-06-19T17:22:41;5.15;;;4.22;;
78732;SDS011;68056;52.530;5.454;2023-06-19T17:25:07;5.25;;;3.95;;